sensor_id;sensor_type;location;lat;lon;timestamp;temperature;humidity
16283;DHT22;8249;48.708;9.030;2022-09-09T00:00:47;13.20;99.90
16283;DHT22;8249;48.708;9.030;2022-09-09T00:03:17;13.20;99.90
16283;DHT22;8249;48.708;9.030;2022-09-09T00:05:52;13.20;99.90
16283;DHT22;8249;48.708;9.030;2022-09-09T00:08:27;13.20;99.90
16283;DHT22;8249;48.708;9.030;2022-09-09T00:11:03;13.30;99.90
16283;DHT22;8249;48.708;9.030;2022-09-09T00:13:37;13.30;99.90
16283;DHT22;8249;48.708;9.030;2022-09-09T00:16:10;13.40;99.90
16283;DHT22;8249;48.708;9.030;2022-09-09T00:18:51;13.40;99.90
16283;DHT22;8249;48.708;9.030;2022-09-09T00:21:21;13.40;99.90
16283;DHT22;8249;48.708;9.030;2022-09-09T00:23:52;13.50;99.90
16283;DHT22;8249;48.708;9.030;2022-09-09T00:26:29;13.50;99.90
16283;DHT22;8249;48.708;9.030;2022-09-09T00:29:03;13.50;99.90
16283;DHT22;8249;48.708;9.030;2022-09-09T00:31:31;13.60;99.90
16283;DHT22;8249;48.708;9.030;2022-09-09T00:34:05;13.60;99.90
16283;DHT22;8249;48.708;9.030;2022-09-09T00:36:37;13.60;99.90
16283;DHT22;8249;48.708;9.030;2022-09-09T00:39:05;13.70;99.90
16283;DHT22;8249;48.708;9.030;2022-09-09T00:41:47;13.70;99.90
16283;DHT22;8249;48.708;9.030;2022-09-09T00:44:21;13.70;99.90
16283;DHT22;8249;48.708;9.030;2022-09-09T00:46:59;13.80;99.90
16283;DHT22;8249;48.708;9.030;2022-09-09T00:49:39;13.80;99.90
16283;DHT22;8249;48.708;9.030;2022-09-09T00:52:22;13.80;99.90
16283;DHT22;8249;48.708;9.030;2022-09-09T00:55:00;13.80;99.90
16283;DHT22;8249;48.708;9.030;2022-09-09T00:57:32;13.80;99.90
16283;DHT22;8249;48.708;9.030;2022-09-09T01:02:53;13.80;99.90
16283;DHT22;8249;48.708;9.030;2022-09-09T01:05:29;13.80;99.90
16283;DHT22;8249;48.708;9.030;2022-09-09T01:07:58;13.90;99.90
16283;DHT22;8249;48.708;9.030;2022-09-09T01:10:36;13.90;99.90
16283;DHT22;8249;48.708;9.030;2022-09-09T01:13:13;13.90;99.90
16283;DHT22;8249;48.708;9.030;2022-09-09T01:15:44;13.90;99.90
16283;DHT22;8249;48.708;9.030;2022-09-09T01:18:16;13.80;99.90
16283;DHT22;8249;48.708;9.030;2022-09-09T01:20:49;13.80;99.90
16283;DHT22;8249;48.708;9.030;2022-09-09T01:23:41;13.70;99.90
16283;DHT22;8249;48.708;9.030;2022-09-09T01:26:35;13.80;99.90
16283;DHT22;8249;48.708;9.030;2022-09-09T01:29:08;13.80;99.90
16283;DHT22;8249;48.708;9.030;2022-09-09T01:31:40;13.70;99.90
16283;DHT22;8249;48.708;9.030;2022-09-09T01:34:12;13.70;99.90
16283;DHT22;8249;48.708;9.030;2022-09-09T01:36:44;13.70;99.90
16283;DHT22;8249;48.708;9.030;2022-09-09T01:39:12;13.70;99.90
16283;DHT22;8249;48.708;9.030;2022-09-09T01:41:41;13.70;99.90
16283;DHT22;8249;48.708;9.030;2022-09-09T01:44:11;13.70;99.90
16283;DHT22;8249;48.708;9.030;2022-09-09T01:46:42;13.70;99.90
16283;DHT22;8249;48.708;9.030;2022-09-09T01:49:14;13.60;99.90
16283;DHT22;8249;48.708;9.030;2022-09-09T01:51:43;13.60;99.90
16283;DHT22;8249;48.708;9.030;2022-09-09T01:54:13;13.60;99.90
16283;DHT22;8249;48.708;9.030;2022-09-09T01:56:50;13.50;99.90
16283;DHT22;8249;48.708;9.030;2022-09-09T01:59:37;13.50;99.90
16283;DHT22;8249;48.708;9.030;2022-09-09T02:02:10;13.50;99.90
16283;DHT22;8249;48.708;9.030;2022-09-09T02:04:44;13.40;99.90
16283;DHT22;8249;48.708;9.030;2022-09-09T02:07:30;13.40;99.90
16283;DHT22;8249;48.708;9.030;2022-09-09T02:10:05;13.40;99.90
16283;DHT22;8249;48.708;9.030;2022-09-09T02:12:40;13.40;99.90
16283;DHT22;8249;48.708;9.030;2022-09-09T02:15:16;13.30;99.90
16283;DHT22;8249;48.708;9.030;2022-09-09T02:17:50;13.30;99.90
16283;DHT22;8249;48.708;9.030;2022-09-09T02:20:19;13.30;99.90
16283;DHT22;8249;48.708;9.030;2022-09-09T02:22:57;13.20;99.90
16283;DHT22;8249;48.708;9.030;2022-09-09T02:25:28;13.20;99.90
16283;DHT22;8249;48.708;9.030;2022-09-09T02:28:07;13.20;99.90
16283;DHT22;8249;48.708;9.030;2022-09-09T02:30:37;13.10;99.90
16283;DHT22;8249;48.708;9.030;2022-09-09T02:33:07;13.10;99.90
16283;DHT22;8249;48.708;9.030;2022-09-09T02:35:43;13.10;99.90
16283;DHT22;8249;48.708;9.030;2022-09-09T02:38:15;13.00;99.90
16283;DHT22;8249;48.708;9.030;2022-09-09T02:40:56;13.00;99.90
16283;DHT22;8249;48.708;9.030;2022-09-09T02:43:44;13.00;99.90
16283;DHT22;8249;48.708;9.030;2022-09-09T02:46:25;13.00;99.90
16283;DHT22;8249;48.708;9.030;2022-09-09T02:49:00;13.00;99.90
16283;DHT22;8249;48.708;9.030;2022-09-09T02:51:40;12.90;99.90
16283;DHT22;8249;48.708;9.030;2022-09-09T02:54:18;12.90;99.90
16283;DHT22;8249;48.708;9.030;2022-09-09T02:56:52;12.90;99.90
16283;DHT22;8249;48.708;9.030;2022-09-09T02:59:27;12.90;99.90
16283;DHT22;8249;48.708;9.030;2022-09-09T03:01:55;12.90;99.90
16283;DHT22;8249;48.708;9.030;2022-09-09T03:04:23;12.90;99.90
16283;DHT22;8249;48.708;9.030;2022-09-09T03:06:51;12.90;99.90
16283;DHT22;8249;48.708;9.030;2022-09-09T03:09:20;12.90;99.90
16283;DHT22;8249;48.708;9.030;2022-09-09T03:11:47;12.90;99.90
16283;DHT22;8249;48.708;9.030;2022-09-09T03:14:15;12.90;99.90
16283;DHT22;8249;48.708;9.030;2022-09-09T03:16:48;12.90;99.90
16283;DHT22;8249;48.708;9.030;2022-09-09T03:19:15;12.80;99.90
16283;DHT22;8249;48.708;9.030;2022-09-09T03:21:42;12.80;99.90
16283;DHT22;8249;48.708;9.030;2022-09-09T03:24:09;12.80;99.90
16283;DHT22;8249;48.708;9.030;2022-09-09T03:26:36;12.80;99.90
16283;DHT22;8249;48.708;9.030;2022-09-09T03:29:05;12.80;99.90
16283;DHT22;8249;48.708;9.030;2022-09-09T03:31:33;12.80;99.90
16283;DHT22;8249;48.708;9.030;2022-09-09T03:34:01;12.80;99.90
16283;DHT22;8249;48.708;9.030;2022-09-09T03:36:32;12.80;99.90
16283;DHT22;8249;48.708;9.030;2022-09-09T03:38:59;12.80;99.90
16283;DHT22;8249;48.708;9.030;2022-09-09T03:41:29;12.80;99.90
16283;DHT22;8249;48.708;9.030;2022-09-09T03:43:58;12.80;99.90
16283;DHT22;8249;48.708;9.030;2022-09-09T03:46:26;12.80;99.90
16283;DHT22;8249;48.708;9.030;2022-09-09T03:48:54;12.80;99.90
16283;DHT22;8249;48.708;9.030;2022-09-09T03:51:22;12.80;99.90
16283;DHT22;8249;48.708;9.030;2022-09-09T03:53:50;12.80;99.90
16283;DHT22;8249;48.708;9.030;2022-09-09T03:56:18;12.70;99.90
16283;DHT22;8249;48.708;9.030;2022-09-09T03:58:47;12.70;99.90
16283;DHT22;8249;48.708;9.030;2022-09-09T04:01:14;12.70;99.90
16283;DHT22;8249;48.708;9.030;2022-09-09T04:03:43;12.60;99.90
16283;DHT22;8249;48.708;9.030;2022-09-09T04:06:12;12.60;99.90
16283;DHT22;8249;48.708;9.030;2022-09-09T04:08:44;12.60;99.90
16283;DHT22;8249;48.708;9.030;2022-09-09T04:11:12;12.60;99.90
16283;DHT22;8249;48.708;9.030;2022-09-09T04:13:39;12.60;99.90
16283;DHT22;8249;48.708;9.030;2022-09-09T04:16:10;12.70;99.90
16283;DHT22;8249;48.708;9.030;2022-09-09T04:18:39;12.70;99.90
16283;DHT22;8249;48.708;9.030;2022-09-09T04:21:06;12.80;99.90
16283;DHT22;8249;48.708;9.030;2022-09-09T04:23:35;12.80;99.90
16283;DHT22;8249;48.708;9.030;2022-09-09T04:26:03;12.80;99.90
16283;DHT22;8249;48.708;9.030;2022-09-09T04:28:33;12.90;99.90
16283;DHT22;8249;48.708;9.030;2022-09-09T04:31:05;13.00;99.90
16283;DHT22;8249;48.708;9.030;2022-09-09T04:33:33;13.10;99.90
16283;DHT22;8249;48.708;9.030;2022-09-09T04:36:00;13.20;99.90
16283;DHT22;8249;48.708;9.030;2022-09-09T04:38:28;13.20;99.90
16283;DHT22;8249;48.708;9.030;2022-09-09T04:40:55;13.30;99.90
16283;DHT22;8249;48.708;9.030;2022-09-09T04:43:24;13.30;99.90
16283;DHT22;8249;48.708;9.030;2022-09-09T04:45:57;13.30;99.90
16283;DHT22;8249;48.708;9.030;2022-09-09T04:48:25;13.40;99.90
16283;DHT22;8249;48.708;9.030;2022-09-09T04:50:56;13.40;99.90
16283;DHT22;8249;48.708;9.030;2022-09-09T04:53:24;13.40;99.90
16283;DHT22;8249;48.708;9.030;2022-09-09T04:55:53;13.40;99.90
16283;DHT22;8249;48.708;9.030;2022-09-09T04:58:28;13.40;99.90
16283;DHT22;8249;48.708;9.030;2022-09-09T05:01:03;13.40;99.90
16283;DHT22;8249;48.708;9.030;2022-09-09T05:03:30;13.40;99.90
16283;DHT22;8249;48.708;9.030;2022-09-09T05:06:03;13.40;99.90
16283;DHT22;8249;48.708;9.030;2022-09-09T05:08:30;13.50;99.90
16283;DHT22;8249;48.708;9.030;2022-09-09T05:10:57;13.50;99.90
16283;DHT22;8249;48.708;9.030;2022-09-09T05:13:25;13.60;99.90
16283;DHT22;8249;48.708;9.030;2022-09-09T05:15:53;13.60;99.90
16283;DHT22;8249;48.708;9.030;2022-09-09T05:18:21;13.70;99.90
16283;DHT22;8249;48.708;9.030;2022-09-09T05:20:48;13.70;99.90
16283;DHT22;8249;48.708;9.030;2022-09-09T05:23:17;13.80;99.90
16283;DHT22;8249;48.708;9.030;2022-09-09T05:25:52;13.80;99.90
16283;DHT22;8249;48.708;9.030;2022-09-09T05:28:20;13.90;99.90
16283;DHT22;8249;48.708;9.030;2022-09-09T05:30:56;14.00;99.90
16283;DHT22;8249;48.708;9.030;2022-09-09T05:33:24;14.10;99.90
16283;DHT22;8249;48.708;9.030;2022-09-09T05:35:56;14.10;99.90
16283;DHT22;8249;48.708;9.030;2022-09-09T05:38:23;14.20;99.90
16283;DHT22;8249;48.708;9.030;2022-09-09T05:40:51;14.20;99.90
16283;DHT22;8249;48.708;9.030;2022-09-09T05:43:18;14.30;99.90
16283;DHT22;8249;48.708;9.030;2022-09-09T05:45:46;14.40;99.90
16283;DHT22;8249;48.708;9.030;2022-09-09T05:48:15;14.40;99.90
16283;DHT22;8249;48.708;9.030;2022-09-09T05:50:43;14.50;99.90
16283;DHT22;8249;48.708;9.030;2022-09-09T05:53:20;14.50;99.90
16283;DHT22;8249;48.708;9.030;2022-09-09T05:55:47;14.50;99.90
16283;DHT22;8249;48.708;9.030;2022-09-09T05:58:14;14.60;99.90
16283;DHT22;8249;48.708;9.030;2022-09-09T06:00:43;14.60;99.90
16283;DHT22;8249;48.708;9.030;2022-09-09T06:03:11;14.70;99.90
16283;DHT22;8249;48.708;9.030;2022-09-09T06:05:40;14.70;99.90
16283;DHT22;8249;48.708;9.030;2022-09-09T06:08:07;14.80;99.90
16283;DHT22;8249;48.708;9.030;2022-09-09T06:10:34;14.90;99.90
16283;DHT22;8249;48.708;9.030;2022-09-09T06:13:02;15.00;99.90
16283;DHT22;8249;48.708;9.030;2022-09-09T06:15:30;15.00;99.90
16283;DHT22;8249;48.708;9.030;2022-09-09T06:17:57;15.10;99.90
16283;DHT22;8249;48.708;9.030;2022-09-09T06:20:24;15.20;99.90
16283;DHT22;8249;48.708;9.030;2022-09-09T06:22:53;15.30;99.90
16283;DHT22;8249;48.708;9.030;2022-09-09T06:25:20;15.40;99.90
16283;DHT22;8249;48.708;9.030;2022-09-09T06:27:48;15.40;99.90
16283;DHT22;8249;48.708;9.030;2022-09-09T06:30:16;15.50;99.90
16283;DHT22;8249;48.708;9.030;2022-09-09T06:32:44;15.60;99.90
16283;DHT22;8249;48.708;9.030;2022-09-09T06:35:10;15.60;99.90
16283;DHT22;8249;48.708;9.030;2022-09-09T06:37:39;15.70;99.90
16283;DHT22;8249;48.708;9.030;2022-09-09T06:40:09;15.80;99.90
16283;DHT22;8249;48.708;9.030;2022-09-09T06:42:36;16.00;99.90
16283;DHT22;8249;48.708;9.030;2022-09-09T06:45:19;16.00;99.90
16283;DHT22;8249;48.708;9.030;2022-09-09T06:47:55;16.10;99.90
16283;DHT22;8249;48.708;9.030;2022-09-09T06:50:22;16.20;99.90
16283;DHT22;8249;48.708;9.030;2022-09-09T06:52:49;16.20;99.90
16283;DHT22;8249;48.708;9.030;2022-09-09T06:55:19;16.30;99.90
16283;DHT22;8249;48.708;9.030;2022-09-09T06:57:46;16.30;99.90
16283;DHT22;8249;48.708;9.030;2022-09-09T07:00:18;16.50;99.90
16283;DHT22;8249;48.708;9.030;2022-09-09T07:02:45;16.50;99.90
16283;DHT22;8249;48.708;9.030;2022-09-09T07:05:13;16.60;99.90
16283;DHT22;8249;48.708;9.030;2022-09-09T07:07:42;16.70;99.90
16283;DHT22;8249;48.708;9.030;2022-09-09T07:10:11;16.70;99.90
16283;DHT22;8249;48.708;9.030;2022-09-09T07:12:40;16.80;99.90
16283;DHT22;8249;48.708;9.030;2022-09-09T07:15:10;16.90;99.90
16283;DHT22;8249;48.708;9.030;2022-09-09T07:17:38;17.10;99.90
16283;DHT22;8249;48.708;9.030;2022-09-09T07:20:06;17.40;99.90
16283;DHT22;8249;48.708;9.030;2022-09-09T07:22:33;17.50;99.90
16283;DHT22;8249;48.708;9.030;2022-09-09T07:25:01;17.60;99.90
16283;DHT22;8249;48.708;9.030;2022-09-09T07:27:28;17.70;99.90
16283;DHT22;8249;48.708;9.030;2022-09-09T07:29:57;17.80;99.90
16283;DHT22;8249;48.708;9.030;2022-09-09T07:32:24;18.00;99.90
16283;DHT22;8249;48.708;9.030;2022-09-09T07:34:51;18.30;99.90
16283;DHT22;8249;48.708;9.030;2022-09-09T07:37:18;18.40;99.90
16283;DHT22;8249;48.708;9.030;2022-09-09T07:39:46;18.30;99.90
16283;DHT22;8249;48.708;9.030;2022-09-09T07:42:14;18.20;99.90
16283;DHT22;8249;48.708;9.030;2022-09-09T07:44:41;18.10;99.90
16283;DHT22;8249;48.708;9.030;2022-09-09T07:47:12;18.20;99.90
16283;DHT22;8249;48.708;9.030;2022-09-09T07:49:44;18.50;99.90
16283;DHT22;8249;48.708;9.030;2022-09-09T07:52:13;18.70;99.90
16283;DHT22;8249;48.708;9.030;2022-09-09T07:54:43;18.80;99.90
16283;DHT22;8249;48.708;9.030;2022-09-09T07:57:12;18.80;99.90
16283;DHT22;8249;48.708;9.030;2022-09-09T07:59:39;18.90;99.90
16283;DHT22;8249;48.708;9.030;2022-09-09T08:02:09;19.00;99.90
16283;DHT22;8249;48.708;9.030;2022-09-09T08:04:38;19.30;99.90
16283;DHT22;8249;48.708;9.030;2022-09-09T08:07:05;19.50;99.90
16283;DHT22;8249;48.708;9.030;2022-09-09T08:09:38;19.70;99.90
16283;DHT22;8249;48.708;9.030;2022-09-09T08:12:11;20.10;99.90
16283;DHT22;8249;48.708;9.030;2022-09-09T08:14:39;20.30;99.90
16283;DHT22;8249;48.708;9.030;2022-09-09T08:17:06;20.70;99.90
16283;DHT22;8249;48.708;9.030;2022-09-09T08:19:33;21.10;99.90
16283;DHT22;8249;48.708;9.030;2022-09-09T08:22:03;21.50;99.90
16283;DHT22;8249;48.708;9.030;2022-09-09T08:24:32;21.70;99.90
16283;DHT22;8249;48.708;9.030;2022-09-09T08:27:00;22.00;99.90
16283;DHT22;8249;48.708;9.030;2022-09-09T08:29:27;21.70;99.90
16283;DHT22;8249;48.708;9.030;2022-09-09T08:31:58;21.80;99.90
16283;DHT22;8249;48.708;9.030;2022-09-09T08:34:26;22.10;99.90
16283;DHT22;8249;48.708;9.030;2022-09-09T08:36:56;22.40;99.90
16283;DHT22;8249;48.708;9.030;2022-09-09T08:39:31;22.70;99.90
16283;DHT22;8249;48.708;9.030;2022-09-09T08:42:20;22.90;99.90
16283;DHT22;8249;48.708;9.030;2022-09-09T08:45:06;23.00;99.90
16283;DHT22;8249;48.708;9.030;2022-09-09T08:47:46;23.20;99.90
16283;DHT22;8249;48.708;9.030;2022-09-09T08:50:22;23.60;99.90
16283;DHT22;8249;48.708;9.030;2022-09-09T08:53:01;24.10;99.90
16283;DHT22;8249;48.708;9.030;2022-09-09T08:55:38;23.90;99.90
16283;DHT22;8249;48.708;9.030;2022-09-09T08:58:12;22.70;99.90
16283;DHT22;8249;48.708;9.030;2022-09-09T09:00:54;21.70;99.90
16283;DHT22;8249;48.708;9.030;2022-09-09T09:03:34;20.90;99.90
16283;DHT22;8249;48.708;9.030;2022-09-09T09:06:08;20.00;99.90
16283;DHT22;8249;48.708;9.030;2022-09-09T09:08:43;19.40;99.90
16283;DHT22;8249;48.708;9.030;2022-09-09T09:11:13;18.60;99.90
16283;DHT22;8249;48.708;9.030;2022-09-09T09:13:44;18.10;99.90
16283;DHT22;8249;48.708;9.030;2022-09-09T09:16:20;17.80;99.90
16283;DHT22;8249;48.708;9.030;2022-09-09T09:18:49;17.50;99.90
16283;DHT22;8249;48.708;9.030;2022-09-09T09:21:21;17.30;99.90
16283;DHT22;8249;48.708;9.030;2022-09-09T09:23:56;17.30;99.90
16283;DHT22;8249;48.708;9.030;2022-09-09T09:26:30;17.40;99.90
16283;DHT22;8249;48.708;9.030;2022-09-09T09:28:59;18.00;99.90
16283;DHT22;8249;48.708;9.030;2022-09-09T09:31:28;19.10;99.90
16283;DHT22;8249;48.708;9.030;2022-09-09T09:33:56;20.50;99.90
16283;DHT22;8249;48.708;9.030;2022-09-09T09:36:34;21.70;99.90
16283;DHT22;8249;48.708;9.030;2022-09-09T09:39:03;23.20;99.90
16283;DHT22;8249;48.708;9.030;2022-09-09T09:41:35;24.40;99.90
16283;DHT22;8249;48.708;9.030;2022-09-09T09:44:05;25.50;99.90
16283;DHT22;8249;48.708;9.030;2022-09-09T09:46:34;26.20;99.90
16283;DHT22;8249;48.708;9.030;2022-09-09T09:49:10;26.40;99.90
16283;DHT22;8249;48.708;9.030;2022-09-09T09:51:39;26.30;99.90
16283;DHT22;8249;48.708;9.030;2022-09-09T09:54:17;26.30;99.90
16283;DHT22;8249;48.708;9.030;2022-09-09T09:56:52;26.30;99.90
16283;DHT22;8249;48.708;9.030;2022-09-09T09:59:22;26.60;99.90
16283;DHT22;8249;48.708;9.030;2022-09-09T10:01:50;26.20;99.90
16283;DHT22;8249;48.708;9.030;2022-09-09T10:04:20;26.00;99.90
16283;DHT22;8249;48.708;9.030;2022-09-09T10:06:51;26.20;99.90
16283;DHT22;8249;48.708;9.030;2022-09-09T10:09:22;27.00;99.90
16283;DHT22;8249;48.708;9.030;2022-09-09T10:11:57;26.80;99.90
16283;DHT22;8249;48.708;9.030;2022-09-09T10:14:32;26.70;99.90
16283;DHT22;8249;48.708;9.030;2022-09-09T10:17:12;26.40;99.90
16283;DHT22;8249;48.708;9.030;2022-09-09T10:19:53;25.50;99.90
16283;DHT22;8249;48.708;9.030;2022-09-09T10:22:26;24.60;99.90
16283;DHT22;8249;48.708;9.030;2022-09-09T10:25:23;25.10;99.90
16283;DHT22;8249;48.708;9.030;2022-09-09T10:28:17;25.80;99.90
16283;DHT22;8249;48.708;9.030;2022-09-09T10:30:54;26.40;99.90
16283;DHT22;8249;48.708;9.030;2022-09-09T10:33:28;26.40;99.90
16283;DHT22;8249;48.708;9.030;2022-09-09T10:36:07;26.40;99.90
16283;DHT22;8249;48.708;9.030;2022-09-09T10:38:40;25.10;99.90
16283;DHT22;8249;48.708;9.030;2022-09-09T10:41:17;23.70;99.90
16283;DHT22;8249;48.708;9.030;2022-09-09T10:44:06;23.00;99.90
16283;DHT22;8249;48.708;9.030;2022-09-09T10:46:51;23.80;99.90
16283;DHT22;8249;48.708;9.030;2022-09-09T10:49:27;24.70;99.90
16283;DHT22;8249;48.708;9.030;2022-09-09T10:52:01;24.60;99.90
16283;DHT22;8249;48.708;9.030;2022-09-09T10:54:45;25.60;99.90
16283;DHT22;8249;48.708;9.030;2022-09-09T10:57:25;26.30;99.90
16283;DHT22;8249;48.708;9.030;2022-09-09T10:59:59;26.60;99.90
16283;DHT22;8249;48.708;9.030;2022-09-09T11:02:31;25.80;99.40
16283;DHT22;8249;48.708;9.030;2022-09-09T11:05:02;25.10;99.90
16283;DHT22;8249;48.708;9.030;2022-09-09T11:07:35;23.90;98.90
16283;DHT22;8249;48.708;9.030;2022-09-09T11:10:13;23.10;99.20
16283;DHT22;8249;48.708;9.030;2022-09-09T11:12:45;22.30;99.40
16283;DHT22;8249;48.708;9.030;2022-09-09T11:15:20;21.40;99.90
16283;DHT22;8249;48.708;9.030;2022-09-09T11:17:50;20.90;99.90
16283;DHT22;8249;48.708;9.030;2022-09-09T11:20:18;20.40;99.90
16283;DHT22;8249;48.708;9.030;2022-09-09T11:22:50;20.20;99.90
16283;DHT22;8249;48.708;9.030;2022-09-09T11:25:21;19.80;99.90
16283;DHT22;8249;48.708;9.030;2022-09-09T11:28:11;19.30;99.90
16283;DHT22;8249;48.708;9.030;2022-09-09T11:30:54;18.80;99.90
16283;DHT22;8249;48.708;9.030;2022-09-09T11:36:49;18.30;99.90
16283;DHT22;8249;48.708;9.030;2022-09-09T11:42:24;18.00;99.90
16283;DHT22;8249;48.708;9.030;2022-09-09T11:44:52;18.10;99.90
16283;DHT22;8249;48.708;9.030;2022-09-09T11:47:23;18.20;99.90
16283;DHT22;8249;48.708;9.030;2022-09-09T11:49:55;18.40;99.90
16283;DHT22;8249;48.708;9.030;2022-09-09T11:52:24;18.70;99.90
16283;DHT22;8249;48.708;9.030;2022-09-09T11:54:54;19.00;99.90
16283;DHT22;8249;48.708;9.030;2022-09-09T11:57:29;19.40;99.90
16283;DHT22;8249;48.708;9.030;2022-09-09T11:59:57;19.90;99.90
16283;DHT22;8249;48.708;9.030;2022-09-09T12:02:28;20.40;99.90
16283;DHT22;8249;48.708;9.030;2022-09-09T12:04:59;20.40;99.90
16283;DHT22;8249;48.708;9.030;2022-09-09T12:07:33;20.70;99.90
16283;DHT22;8249;48.708;9.030;2022-09-09T12:10:04;21.00;99.90
16283;DHT22;8249;48.708;9.030;2022-09-09T12:12:35;21.30;99.90
16283;DHT22;8249;48.708;9.030;2022-09-09T12:15:21;21.90;99.90
16283;DHT22;8249;48.708;9.030;2022-09-09T12:17:52;22.30;99.90
16283;DHT22;8249;48.708;9.030;2022-09-09T12:20:21;22.30;99.90
16283;DHT22;8249;48.708;9.030;2022-09-09T12:23:12;23.10;99.90
16283;DHT22;8249;48.708;9.030;2022-09-09T12:28:47;25.60;99.50
16283;DHT22;8249;48.708;9.030;2022-09-09T12:31:21;26.40;97.50
16283;DHT22;8249;48.708;9.030;2022-09-09T12:33:51;25.30;97.80
16283;DHT22;8249;48.708;9.030;2022-09-09T12:36:21;23.80;99.30
16283;DHT22;8249;48.708;9.030;2022-09-09T12:38:48;22.60;99.90
16283;DHT22;8249;48.708;9.030;2022-09-09T12:41:21;22.00;99.90
16283;DHT22;8249;48.708;9.030;2022-09-09T12:43:49;21.70;99.90
16283;DHT22;8249;48.708;9.030;2022-09-09T12:46:27;22.20;99.90
16283;DHT22;8249;48.708;9.030;2022-09-09T12:48:58;21.80;99.90
16283;DHT22;8249;48.708;9.030;2022-09-09T12:51:28;21.50;99.90
16283;DHT22;8249;48.708;9.030;2022-09-09T12:53:55;22.50;99.90
16283;DHT22;8249;48.708;9.030;2022-09-09T12:56:24;22.70;99.90
16283;DHT22;8249;48.708;9.030;2022-09-09T12:58:54;22.10;99.90
16283;DHT22;8249;48.708;9.030;2022-09-09T13:01:23;21.60;99.90
16283;DHT22;8249;48.708;9.030;2022-09-09T13:03:51;21.80;99.90
16283;DHT22;8249;48.708;9.030;2022-09-09T13:06:22;23.30;99.90
16283;DHT22;8249;48.708;9.030;2022-09-09T13:08:50;25.00;99.90
16283;DHT22;8249;48.708;9.030;2022-09-09T13:11:19;25.70;98.90
16283;DHT22;8249;48.708;9.030;2022-09-09T13:13:51;26.20;96.20
16283;DHT22;8249;48.708;9.030;2022-09-09T13:16:21;26.60;95.50
16283;DHT22;8249;48.708;9.030;2022-09-09T13:18:48;26.20;94.90
16283;DHT22;8249;48.708;9.030;2022-09-09T13:21:16;26.60;94.60
16283;DHT22;8249;48.708;9.030;2022-09-09T13:23:48;26.70;93.80
16283;DHT22;8249;48.708;9.030;2022-09-09T13:26:24;27.00;93.90
16283;DHT22;8249;48.708;9.030;2022-09-09T13:28:52;27.80;92.30
16283;DHT22;8249;48.708;9.030;2022-09-09T13:31:22;27.00;92.60
16283;DHT22;8249;48.708;9.030;2022-09-09T13:33:50;25.20;93.80
16283;DHT22;8249;48.708;9.030;2022-09-09T13:36:28;23.50;95.60
16283;DHT22;8249;48.708;9.030;2022-09-09T13:38:58;22.90;96.50
16283;DHT22;8249;48.708;9.030;2022-09-09T13:41:35;23.40;96.00
16283;DHT22;8249;48.708;9.030;2022-09-09T13:44:03;23.30;95.70
16283;DHT22;8249;48.708;9.030;2022-09-09T13:46:34;23.60;96.20
16283;DHT22;8249;48.708;9.030;2022-09-09T13:49:17;24.40;95.20
16283;DHT22;8249;48.708;9.030;2022-09-09T13:51:46;24.70;94.70
16283;DHT22;8249;48.708;9.030;2022-09-09T13:54:17;25.40;93.90
16283;DHT22;8249;48.708;9.030;2022-09-09T13:56:44;26.60;92.50
16283;DHT22;8249;48.708;9.030;2022-09-09T13:59:13;26.90;92.00
16283;DHT22;8249;48.708;9.030;2022-09-09T14:01:41;27.10;91.90
16283;DHT22;8249;48.708;9.030;2022-09-09T14:04:08;27.80;90.70
16283;DHT22;8249;48.708;9.030;2022-09-09T14:06:36;28.00;89.90
16283;DHT22;8249;48.708;9.030;2022-09-09T14:09:05;29.00;88.20
16283;DHT22;8249;48.708;9.030;2022-09-09T14:11:33;28.80;85.40
16283;DHT22;8249;48.708;9.030;2022-09-09T14:14:00;28.20;85.80
16283;DHT22;8249;48.708;9.030;2022-09-09T14:16:29;28.00;87.60
16283;DHT22;8249;48.708;9.030;2022-09-09T14:18:56;28.30;86.50
16283;DHT22;8249;48.708;9.030;2022-09-09T14:21:23;27.80;84.90
16283;DHT22;8249;48.708;9.030;2022-09-09T14:23:50;27.40;85.80
16283;DHT22;8249;48.708;9.030;2022-09-09T14:26:18;26.00;87.20
16283;DHT22;8249;48.708;9.030;2022-09-09T14:28:48;25.00;88.50
16283;DHT22;8249;48.708;9.030;2022-09-09T14:31:15;25.00;89.60
16283;DHT22;8249;48.708;9.030;2022-09-09T14:33:43;24.20;90.50
16283;DHT22;8249;48.708;9.030;2022-09-09T14:36:10;24.10;90.70
16283;DHT22;8249;48.708;9.030;2022-09-09T14:38:38;23.60;90.90
16283;DHT22;8249;48.708;9.030;2022-09-09T14:41:05;24.10;90.80
16283;DHT22;8249;48.708;9.030;2022-09-09T14:43:32;24.40;90.40
16283;DHT22;8249;48.708;9.030;2022-09-09T14:46:05;25.00;90.00
16283;DHT22;8249;48.708;9.030;2022-09-09T14:48:32;26.10;87.50
16283;DHT22;8249;48.708;9.030;2022-09-09T14:53:30;26.80;85.50
16283;DHT22;8249;48.708;9.030;2022-09-09T14:56:04;27.00;85.10
16283;DHT22;8249;48.708;9.030;2022-09-09T14:58:31;27.30;84.00
16283;DHT22;8249;48.708;9.030;2022-09-09T15:01:03;26.70;85.00
16283;DHT22;8249;48.708;9.030;2022-09-09T15:03:32;25.20;87.20
16283;DHT22;8249;48.708;9.030;2022-09-09T15:06:05;23.90;89.90
16283;DHT22;8249;48.708;9.030;2022-09-09T15:08:34;22.80;91.10
16283;DHT22;8249;48.708;9.030;2022-09-09T15:11:01;22.10;92.10
16283;DHT22;8249;48.708;9.030;2022-09-09T15:13:29;21.50;92.70
16283;DHT22;8249;48.708;9.030;2022-09-09T15:15:56;21.40;93.20
16283;DHT22;8249;48.708;9.030;2022-09-09T15:18:23;23.00;92.00
16283;DHT22;8249;48.708;9.030;2022-09-09T15:20:52;24.70;90.90
16283;DHT22;8249;48.708;9.030;2022-09-09T15:23:19;26.10;89.20
16283;DHT22;8249;48.708;9.030;2022-09-09T15:25:52;26.60;88.00
16283;DHT22;8249;48.708;9.030;2022-09-09T15:28:19;26.40;87.50
16283;DHT22;8249;48.708;9.030;2022-09-09T15:30:48;26.80;87.80
16283;DHT22;8249;48.708;9.030;2022-09-09T15:33:15;27.50;86.50
16283;DHT22;8249;48.708;9.030;2022-09-09T15:35:42;25.80;86.30
16283;DHT22;8249;48.708;9.030;2022-09-09T15:38:10;23.60;88.30
16283;DHT22;8249;48.708;9.030;2022-09-09T15:40:38;22.60;90.30
16283;DHT22;8249;48.708;9.030;2022-09-09T15:43:06;21.80;91.20
16283;DHT22;8249;48.708;9.030;2022-09-09T15:45:35;21.20;92.00
16283;DHT22;8249;48.708;9.030;2022-09-09T15:48:02;20.80;92.70
16283;DHT22;8249;48.708;9.030;2022-09-09T15:50:30;20.60;93.10
16283;DHT22;8249;48.708;9.030;2022-09-09T15:52:58;20.40;93.60
16283;DHT22;8249;48.708;9.030;2022-09-09T15:55:26;20.30;93.80
16283;DHT22;8249;48.708;9.030;2022-09-09T15:57:53;20.20;94.00
16283;DHT22;8249;48.708;9.030;2022-09-09T16:00:21;20.20;94.20
16283;DHT22;8249;48.708;9.030;2022-09-09T16:02:49;20.10;94.40
16283;DHT22;8249;48.708;9.030;2022-09-09T16:05:17;20.00;94.20
16283;DHT22;8249;48.708;9.030;2022-09-09T16:07:44;20.00;94.60
16283;DHT22;8249;48.708;9.030;2022-09-09T16:10:11;20.00;94.80
16283;DHT22;8249;48.708;9.030;2022-09-09T16:12:40;19.90;95.00
16283;DHT22;8249;48.708;9.030;2022-09-09T16:15:08;19.90;95.30
16283;DHT22;8249;48.708;9.030;2022-09-09T16:17:35;19.80;95.60
16283;DHT22;8249;48.708;9.030;2022-09-09T16:20:04;19.80;95.80
16283;DHT22;8249;48.708;9.030;2022-09-09T16:22:34;19.80;96.00
16283;DHT22;8249;48.708;9.030;2022-09-09T16:25:01;19.90;96.30